Time;durP1;ratioP1;P1;durP2;ratioP2;P2;SDS_P1;SDS_P2;PMS_P1;PMS_P2;Temp;Humidity;BMP_temperature;BMP_pressure;BME280_temperature;BME280_humidity;BME280_pressure;Samples;Min_cycle;Max_cycle;Signal;HPM_P1;HPM_P2
2023/03/18 12:25:14;;;;;;;9.98;8.70;;;20.80;99.90;;;;;;5130860;27;20409;-77
2023/03/18 12:28:16;;;;;;;9.50;8.50;;;20.00;99.90;;;;;;5095810;28;20062;-77
2023/03/18 12:31:09;;;;;;;9.50;8.25;;;19.30;99.90;;;;;;5110144;28;20046;-77
2023/03/18 12:34:00;;;;;;;8.95;7.82;;;18.70;99.90;;;;;;5064670;28;20071;-77
2023/03/18 12:36:44;;;;;;;9.48;8.48;;;18.40;99.90;;;;;;5104181;28;20059;-77
2023/03/18 12:39:32;;;;;;;10.90;9.70;;;18.50;99.90;;;;;;5107558;28;20045;-77
2023/03/18 12:42:20;;;;;;;9.93;8.93;;;18.50;99.90;;;;;;5106168;28;20040;-77
2023/03/18 12:44:48;;;;;;;10.38;9.38;;;18.60;99.90;;;;;;5119458;28;20085;-77
2023/03/18 12:47:37;;;;;;;9.65;8.65;;;18.80;99.90;;;;;;5109301;28;20396;-77
2023/03/18 12:50:11;;;;;;;8.00;7.20;;;18.70;99.90;;;;;;5120311;28;20486;-77
2023/03/18 12:52:40;;;;;;;7.78;6.68;;;18.50;99.90;;;;;;5095427;28;20069;-77
2023/03/18 12:55:15;;;;;;;8.73;7.07;;;18.30;99.90;;;;;;5121849;28;20063;-77
2023/03/18 12:57:58;;;;;;;8.52;7.32;;;18.00;99.90;;;;;;5095299;28;20041;-77
2023/03/18 13:00:28;;;;;;;;;;;17.90;99.90;;;;;;5101509;28;20198;-77
2023/03/18 13:03:25;;;;;;;8.48;7.63;;;17.80;99.90;;;;;;5126249;28;19920;-78
2023/03/18 13:05:57;;;;;;;8.45;7.63;;;18.00;99.90;;;;;;5110393;28;20047;-77
2023/03/18 13:08:33;;;;;;;8.88;7.97;;;18.10;99.90;;;;;;5130091;27;20068;-77
2023/03/18 13:11:11;;;;;;;8.05;7.30;;;18.20;99.90;;;;;;5133800;27;20023;-77
2023/03/18 13:13:45;;;;;;;7.80;6.90;;;18.10;99.90;;;;;;5128468;27;20152;-77
2023/03/18 13:16:12;;;;;;;8.88;6.90;;;18.10;99.90;;;;;;5107055;28;20043;-77
2023/03/18 13:19:01;;;;;;;8.18;6.57;;;18.10;99.90;;;;;;5103490;28;20043;-77
2023/03/18 13:21:29;;;;;;;7.80;6.70;;;18.10;99.90;;;;;;5100475;28;20042;-78
2023/03/18 13:24:09;;;;;;;8.52;6.75;;;18.00;99.90;;;;;;5091731;28;20047;-78
2023/03/18 13:26:56;;;;;;;6.82;6.10;;;18.10;99.90;;;;;;5105571;28;20028;-78
2023/03/18 13:29:50;;;;;;;6.28;5.68;;;18.10;99.90;;;;;;5119174;28;20050;-78
2023/03/18 13:32:51;;;;;;;7.03;6.13;;;18.10;99.90;;;;;;5123229;28;20040;-78
2023/03/18 13:35:49;;;;;;;5.90;5.30;;;18.00;99.90;;;;;;5101720;28;20050;-78
2023/03/18 13:38:36;;;;;;;7.22;6.43;;;17.90;99.90;;;;;;5114828;28;20097;-78
2023/03/18 13:41:39;;;;;;;8.55;5.72;;;17.90;99.90;;;;;;5097829;28;20130;-78
2023/03/18 13:44:14;;;;;;;6.43;5.82;;;17.80;99.90;;;;;;5074309;28;20130;-78
2023/03/18 13:46:45;;;;;;;7.28;6.25;;;17.60;99.90;;;;;;5089474;28;20122;-78
2023/03/18 13:49:21;;;;;;;6.65;5.68;;;17.50;99.90;;;;;;5096380;28;20055;-78
2023/03/18 13:51:51;;;;;;;7.07;6.35;;;17.40;99.90;;;;;;5114107;28;20040;-78
2023/03/18 13:54:19;;;;;;;7.22;6.05;;;17.20;99.90;;;;;;5109747;27;20067;-75
2023/03/18 13:56:54;;;;;;;6.93;6.18;;;17.10;99.90;;;;;;5085055;28;20468;-76
2023/03/18 13:59:32;;;;;;;8.07;6.40;;;17.00;99.90;;;;;;5092779;28;20048;-76
2023/03/18 14:02:36;;;;;;;8.43;6.38;;;16.80;99.90;;;;;;5087006;28;20040;-76
2023/03/18 14:05:22;;;;;;;6.35;5.55;;;16.60;99.90;;;;;;5105040;28;20055;-77
2023/03/18 14:07:48;;;;;;;6.80;6.15;;;16.40;99.90;;;;;;5096269;28;20048;-77
2023/03/18 14:10:19;;;;;;;8.15;5.78;;;16.20;99.90;;;;;;5085770;28;20084;-77
2023/03/18 14:12:46;;;;;;;6.97;5.97;;;16.00;99.90;;;;;;5091164;28;20043;-77
2023/03/18 14:15:15;;;;;;;6.97;6.10;;;16.00;99.90;;;;;;5123221;27;20118;-76
2023/03/18 14:17:47;;;;;;;6.57;5.97;;;15.90;99.90;;;;;;5119006;28;20059;-76
2023/03/18 14:20:42;;;;;;;6.55;5.95;;;15.70;99.90;;;;;;5112475;27;20032;-78
2023/03/18 14:23:23;;;;;;;7.07;6.30;;;15.70;99.90;;;;;;5090736;28;20036;-78
2023/03/18 14:25:58;;;;;;;8.27;6.60;;;15.60;99.90;;;;;;5101713;28;20091;-78
2023/03/18 14:28:25;;;;;;;7.15;6.40;;;15.60;99.90;;;;;;5095579;28;20041;-77
2023/03/18 14:31:10;;;;;;;8.55;6.97;;;15.60;99.90;;;;;;5097123;28;20481;-78
2023/03/18 14:33:50;;;;;;;7.60;6.82;;;15.60;99.90;;;;;;5112398;27;20038;-78
2023/03/18 14:36:15;;;;;;;7.32;6.60;;;15.60;99.90;;;;;;5084033;28;20042;-78
2023/03/18 14:38:53;;;;;;;7.32;6.60;;;15.60;99.90;;;;;;5081743;28;20035;-78
2023/03/18 14:41:24;;;;;;;6.85;6.07;;;15.70;99.90;;;;;;5106720;27;20402;-77
2023/03/18 14:44:37;;;;;;;7.25;6.25;;;15.60;99.90;;;;;;5114761;27;20477;-78
2023/03/18 14:47:13;;;;;;;6.80;6.15;;;15.60;99.90;;;;;;5087570;28;20058;-77
2023/03/18 14:49:44;;;;;;;8.27;5.72;;;15.50;99.90;;;;;;5079891;28;20419;-77
2023/03/18 14:52:22;;;;;;;6.88;5.45;;;15.50;99.90;;;;;;5109092;27;20035;-77
2023/03/18 14:54:51;;;;;;;6.63;5.10;;;15.50;99.90;;;;;;5107808;27;20036;-77
2023/03/18 14:57:21;;;;;;;5.70;4.53;;;15.40;99.90;;;;;;5092657;28;20039;-77
2023/03/18 14:59:46;;;;;;;5.25;4.50;;;15.30;99.90;;;;;;5111172;27;20482;-77
2023/03/18 15:02:36;;;;;;;6.57;4.93;;;15.20;99.90;;;;;;5100610;27;20040;-78
2023/03/18 15:05:20;;;;;;;7.47;4.80;;;15.20;99.90;;;;;;5108758;27;20090;-80
2023/03/18 15:07:58;;;;;;;6.82;5.10;;;15.10;99.90;;;;;;5106085;28;20031;-80
2023/03/18 15:10:29;;;;;;;6.22;5.00;;;15.10;99.90;;;;;;5128306;28;20324;-79
2023/03/18 15:13:25;;;;;;;6.22;5.50;;;15.00;99.90;;;;;;5108046;28;20036;-79
2023/03/18 15:15:57;;;;;;;5.90;5.32;;;14.90;99.90;;;;;;5101893;28;20140;-79
2023/03/18 15:18:28;;;;;;;7.20;5.77;;;14.80;99.90;;;;;;5096654;28;20047;-79
2023/03/18 15:21:21;;;;;;;9.57;6.20;;;14.60;99.90;;;;;;5095895;28;20643;-79
2023/03/18 15:24:02;;;;;;;9.63;7.57;;;14.40;99.90;;;;;;5101400;28;20035;-79
2023/03/18 15:26:40;;;;;;;10.10;7.72;;;14.00;99.90;;;;;;5096997;28;20042;-78
2023/03/18 15:29:36;;;;;;;9.07;7.65;;;13.70;99.90;;;;;;5093677;28;20044;-77
2023/03/18 15:32:39;;;;;;;8.80;7.13;;;12.90;99.90;;;;;;5007752;28;20067;-78
2023/03/18 15:35:18;;;;;;;6.85;5.28;;;12.50;99.90;;;;;;5094491;28;20027;-77
2023/03/18 15:38:05;;;;;;;6.80;5.97;;;12.20;99.90;;;;;;5087830;28;20032;-78
2023/03/18 15:40:45;;;;;;;8.48;6.35;;;12.00;99.90;;;;;;5085352;28;20722;-78
2023/03/18 15:43:13;;;;;;;8.88;5.85;;;11.80;99.90;;;;;;5093587;28;20074;-78
2023/03/18 15:45:44;;;;;;;8.95;6.00;;;11.80;99.90;;;;;;5092651;28;20032;-78
2023/03/18 15:48:29;;;;;;;11.00;7.00;;;11.70;99.90;;;;;;5094085;28;20081;-78
2023/03/18 15:50:58;;;;;;;8.35;6.70;;;11.70;99.90;;;;;;5119028;27;20064;-78
2023/03/18 15:53:41;;;;;;;10.27;6.43;;;11.70;99.90;;;;;;5090355;28;20126;-78
2023/03/18 15:56:16;;;;;;;8.80;6.47;;;11.80;99.90;;;;;;5088603;28;20036;-77
2023/03/18 15:58:45;;;;;;;7.82;5.53;;;12.10;99.90;;;;;;5104711;28;20371;-77
2023/03/18 16:01:16;;;;;;;7.22;5.57;;;12.20;99.90;;;;;;5090179;27;20043;-76
2023/03/18 16:03:45;;;;;;;5.35;4.85;;;12.30;99.90;;;;;;5097864;28;20050;-77
2023/03/18 16:06:13;;;;;;;6.15;4.30;;;12.40;99.90;;;;;;5111524;28;20035;-77
2023/03/18 16:08:39;;;;;;;7.03;4.10;;;12.50;99.90;;;;;;5110292;28;20082;-77
2023/03/18 16:11:05;;;;;;;4.72;3.78;;;12.60;99.90;;;;;;5102535;28;20064;-76
2023/03/18 16:13:33;;;;;;;4.82;3.30;;;12.50;99.90;;;;;;5093164;28;20627;-76
2023/03/18 16:15:59;;;;;;;6.18;3.70;;;12.60;99.90;;;;;;5094267;28;20122;-76
2023/03/18 16:18:26;;;;;;;5.55;3.58;;;12.60;99.90;;;;;;5111265;28;20050;-76
2023/03/18 16:20:52;;;;;;;6.82;4.20;;;12.70;99.90;;;;;;5088827;28;20514;-76
2023/03/18 16:23:21;;;;;;;5.38;4.15;;;12.80;99.90;;;;;;5108447;28;20089;-77
2023/03/18 16:25:53;;;;;;;6.43;4.38;;;13.00;99.90;;;;;;5102515;28;20071;-77
2023/03/18 16:28:25;;;;;;;6.70;4.60;;;13.10;99.90;;;;;;5101381;28;20048;-77
2023/03/18 16:30:52;;;;;;;6.40;4.53;;;13.00;99.90;;;;;;5102473;28;20078;-77
2023/03/18 16:33:19;;;;;;;6.32;5.10;;;12.90;99.90;;;;;;5109283;28;20047;-76
2023/03/18 16:36:00;;;;;;;9.05;5.05;;;12.90;99.90;;;;;;5088015;28;20063;-78
2023/03/18 16:38:27;;;;;;;7.00;5.13;;;12.80;99.90;;;;;;5096908;28;20039;-78
2023/03/18 16:40:54;;;;;;;7.65;5.50;;;12.70;99.90;;;;;;5113298;28;20628;-77
2023/03/18 16:43:26;;;;;;;7.60;5.53;;;12.80;99.90;;;;;;5107802;28;20055;-78
2023/03/18 16:45:53;;;;;;;7.40;5.80;;;12.70;99.90;;;;;;5115835;28;20038;-77
2023/03/18 16:48:22;;;;;;;7.10;5.88;;;12.70;99.90;;;;;;5103241;28;20464;-76
2023/03/18 16:50:49;;;;;;;7.90;6.35;;;12.60;99.90;;;;;;5111822;28;20043;-76
2023/03/18 16:53:17;;;;;;;7.80;6.90;;;12.60;99.90;;;;;;5087715;28;20370;-77
2023/03/18 16:55:44;;;;;;;9.27;6.63;;;12.60;99.90;;;;;;5095263;28;20419;-78
2023/03/18 16:58:16;;;;;;;8.45;6.70;;;12.60;99.90;;;;;;5105967;28;20103;-78
2023/03/18 17:00:45;;;;;;;10.43;7.50;;;12.50;99.90;;;;;;5087178;28;20123;-78
2023/03/18 17:03:12;;;;;;;8.98;7.22;;;12.50;99.90;;;;;;5102379;28;20409;-78
2023/03/18 17:05:38;;;;;;;8.40;7.53;;;12.40;99.90;;;;;;5088993;28;20562;-78
2023/03/18 17:08:06;;;;;;;9.73;8.45;;;12.30;99.90;;;;;;5098319;28;20032;-76
2023/03/18 17:10:47;;;;;;;12.40;8.30;;;12.30;99.90;;;;;;5117242;28;20035;-81
2023/03/18 17:13:25;;;;;;;9.88;8.38;;;12.20;99.90;;;;;;5085014;28;20054;-80
2023/03/18 17:15:54;;;;;;;11.05;8.80;;;12.10;99.90;;;;;;5096105;28;20035;-80
2023/03/18 17:18:22;;;;;;;11.80;8.80;;;12.00;99.90;;;;;;5101553;28;20549;-80
2023/03/18 17:20:49;;;;;;;10.50;8.88;;;11.90;99.90;;;;;;5101115;28;20047;-80
2023/03/18 17:23:21;;;;;;;11.27;9.15;;;11.80;99.90;;;;;;5119872;28;20122;-80
2023/03/18 17:25:52;;;;;;;11.98;9.32;;;11.80;99.90;;;;;;5098471;28;20031;-79
2023/03/18 17:28:31;;;;;;;11.32;8.98;;;11.70;99.90;;;;;;5096393;28;20324;-80
2023/03/18 17:30:57;;;;;;;11.18;10.05;;;11.70;99.90;;;;;;5100052;28;20043;-79
2023/03/18 17:33:29;;;;;;;13.57;10.45;;;11.50;99.90;;;;;;5107507;27;20065;-79
2023/03/18 17:35:56;;;;;;;15.63;12.88;;;11.40;99.90;;;;;;5108004;27;20043;-79
2023/03/18 17:38:26;;;;;;;15.48;13.77;;;11.20;99.90;;;;;;5105105;28;20039;-81
2023/03/18 17:41:12;;;;;;;16.60;14.85;;;11.10;99.90;;;;;;5107474;28;20108;-82
2023/03/18 17:43:46;;;;;;;16.23;13.88;;;11.10;99.90;;;;;;5095301;28;20092;-79
2023/03/18 17:46:11;;;;;;;14.90;11.93;;;10.90;99.90;;;;;;5099816;28;20039;-79
2023/03/18 17:48:39;;;;;;;16.23;14.38;;;10.90;99.90;;;;;;5107832;27;20066;-78
2023/03/18 17:51:07;;;;;;;13.02;11.30;;;10.90;99.90;;;;;;5103339;27;20453;-79
2023/03/18 17:53:39;;;;;;;14.95;13.25;;;11.00;99.90;;;;;;5088961;28;20071;-77
2023/03/18 17:56:10;;;;;;;16.20;12.77;;;10.80;99.90;;;;;;5088490;27;20489;-79
2023/03/18 17:58:37;;;;;;;16.60;14.85;;;10.80;99.90;;;;;;5101917;28;20032;-79
2023/03/18 18:01:07;;;;;;;17.55;15.75;;;10.70;99.90;;;;;;5095967;28;20038;-79
2023/03/18 18:03:35;;;;;;;18.50;15.18;;;10.70;99.90;;;;;;5115972;27;20067;-79
2023/03/18 18:06:02;;;;;;;16.80;15.02;;;10.60;99.90;;;;;;5111930;28;20039;-79
2023/03/18 18:08:30;;;;;;;16.00;13.90;;;10.50;99.90;;;;;;5093412;28;20050;-78
2023/03/18 18:11:21;;;;;;;16.05;14.35;;;10.40;99.90;;;;;;5101070;28;20076;-78
2023/03/18 18:13:48;;;;;;;16.52;13.88;;;10.40;99.90;;;;;;5124084;27;20087;-79
2023/03/18 18:16:14;;;;;;;16.92;15.10;;;10.40;99.90;;;;;;5109470;28;20028;-78
2023/03/18 18:18:40;;;;;;;18.83;15.55;;;10.30;99.90;;;;;;5081911;28;20036;-78
2023/03/18 18:21:20;;;;;;;16.25;14.52;;;10.30;99.90;;;;;;5111802;28;20550;-76
2023/03/18 18:23:47;;;;;;;19.42;15.45;;;10.30;99.90;;;;;;5102324;28;20119;-76
2023/03/18 18:26:18;;;;;;;16.00;14.38;;;10.40;99.90;;;;;;5084403;28;20085;-76
2023/03/18 18:28:49;;;;;;;15.45;13.85;;;10.40;99.90;;;;;;5117043;27;20047;-76
2023/03/18 18:31:18;;;;;;;14.68;13.18;;;10.30;99.90;;;;;;5101910;28;20036;-77
2023/03/18 18:33:44;;;;;;;14.70;13.25;;;10.30;99.90;;;;;;5094758;28;20091;-77
2023/03/18 18:36:12;;;;;;;15.05;13.48;;;10.30;99.90;;;;;;5075560;28;20040;-77
2023/03/18 18:38:38;;;;;;;14.30;12.82;;;10.20;99.90;;;;;;5061376;22;20044;-78
2023/03/18 18:41:06;;;;;;;15.05;13.55;;;10.10;99.90;;;;;;5039951;28;20127;-78
2023/03/18 18:43:32;;;;;;;16.13;13.88;;;10.00;99.90;;;;;;5048453;28;20093;-78
2023/03/18 18:45:58;;;;;;;15.55;13.88;;;10.00;99.90;;;;;;5037960;28;20111;-78
2023/03/18 18:48:34;;;;;;;16.13;14.27;;;9.90;99.90;;;;;;5027071;28;20528;-79
2023/03/18 18:51:02;;;;;;;16.15;14.48;;;9.80;99.90;;;;;;5050364;28;20089;-79
2023/03/18 18:53:36;;;;;;;17.58;15.55;;;9.80;99.90;;;;;;5030876;28;20037;-78
2023/03/18 18:56:21;;;;;;;16.95;15.20;;;9.70;99.90;;;;;;5024356;28;20483;-79
2023/03/18 18:58:47;;;;;;;18.48;16.50;;;9.60;99.90;;;;;;5030544;28;20043;-78
2023/03/18 19:01:13;;;;;;;18.83;17.02;;;9.60;99.90;;;;;;5033597;28;20044;-79
2023/03/18 19:03:40;;;;;;;19.20;17.35;;;9.60;99.90;;;;;;5047986;28;20521;-78
2023/03/18 19:06:26;;;;;;;18.58;16.77;;;9.60;99.90;;;;;;5036992;28;20047;-78
2023/03/18 19:08:53;;;;;;;21.08;19.08;;;9.50;99.90;;;;;;5031082;28;20040;-78
2023/03/18 19:11:19;;;;;;;24.60;22.13;;;9.50;99.90;;;;;;5030779;28;20468;-80
2023/03/18 19:13:46;;;;;;;27.60;25.00;;;9.40;99.90;;;;;;5035408;28;20617;-80
2023/03/18 19:16:31;;;;;;;26.85;24.23;;;9.30;99.90;;;;;;5029351;28;20029;-79
2023/03/18 19:18:58;;;;;;;29.73;26.70;;;9.30;99.90;;;;;;5026162;28;20037;-79
2023/03/18 19:21:24;;;;;;;31.42;28.48;;;9.20;99.90;;;;;;5047208;28;20243;-79
2023/03/18 19:23:50;;;;;;;33.63;30.45;;;9.10;99.90;;;;;;5031825;28;20109;-79
2023/03/18 19:26:17;;;;;;;32.45;29.42;;;9.10;99.90;;;;;;5037210;28;20466;-79
2023/03/18 19:31:12;;;;;;;24.27;21.73;;;9.10;99.90;;;;;;5041684;28;20033;-79
2023/03/18 19:33:39;;;;;;;27.35;24.65;;;9.10;99.90;;;;;;5026248;28;20037;-79
2023/03/18 19:36:27;;;;;;;28.25;25.35;;;9.00;99.90;;;;;;5031294;28;20040;-79
2023/03/18 19:39:00;;;;;;;29.92;26.65;;;9.00;99.90;;;;;;5046871;28;20044;-79
2023/03/18 19:41:26;;;;;;;25.20;22.52;;;9.00;99.90;;;;;;5036135;28;20044;-80
2023/03/18 19:43:54;;;;;;;22.65;20.42;;;9.00;99.90;;;;;;5036561;28;20090;-80
2023/03/18 19:46:37;;;;;;;23.33;20.92;;;9.00;99.90;;;;;;5033791;28;20525;-79
2023/03/18 19:49:23;;;;;;;22.65;20.30;;;9.00;99.90;;;;;;5031261;28;20732;-80
2023/03/18 19:51:49;;;;;;;22.75;20.48;;;8.90;99.90;;;;;;5024924;28;20514;-79
2023/03/18 19:54:21;;;;;;;22.05;19.95;;;8.90;99.90;;;;;;5032841;28;20112;-80
2023/03/18 19:56:47;;;;;;;21.52;19.33;;;8.90;99.90;;;;;;5036294;28;20047;-80
2023/03/18 19:59:19;;;;;;;22.15;19.90;;;8.90;99.90;;;;;;5029258;28;20040;-79
2023/03/18 20:01:46;;;;;;;22.33;19.98;;;8.90;99.90;;;;;;5017944;28;20175;-80
2023/03/18 20:04:17;;;;;;;24.88;22.38;;;8.90;99.90;;;;;;5032409;28;20029;-80
2023/03/18 20:06:46;;;;;;;28.52;25.52;;;8.80;99.90;;;;;;5020646;28;20284;-80
2023/03/18 20:09:12;;;;;;;30.60;27.42;;;8.80;99.90;;;;;;5031278;28;20063;-80
2023/03/18 20:11:38;;;;;;;39.78;36.25;;;8.80;99.90;;;;;;5018617;28;20395;-79
2023/03/18 20:14:20;;;;;;;42.35;38.45;;;8.70;99.90;;;;;;5052904;28;20040;-80
2023/03/18 20:16:46;;;;;;;42.55;38.72;;;8.70;99.90;;;;;;5032414;28;20082;-80
2023/03/18 20:19:12;;;;;;;35.35;32.03;;;8.80;99.90;;;;;;5028762;28;20040;-80
2023/03/18 20:21:38;;;;;;;33.20;30.00;;;8.80;99.90;;;;;;5035614;28;20238;-80
2023/03/18 20:24:11;;;;;;;33.08;29.98;;;8.80;99.90;;;;;;5036095;28;20052;-81
2023/03/18 20:26:37;;;;;;;32.63;29.52;;;8.90;99.90;;;;;;5030840;28;20043;-80
2023/03/18 20:29:17;;;;;;;29.90;26.80;;;8.90;99.90;;;;;;5028088;28;20036;-79
2023/03/18 20:31:43;;;;;;;28.70;25.85;;;8.90;99.90;;;;;;5032344;28;20041;-80
2023/03/18 20:34:09;;;;;;;29.17;26.27;;;8.90;99.90;;;;;;5024564;28;20036;-79
2023/03/18 20:36:35;;;;;;;29.90;26.80;;;8.90;99.90;;;;;;5026962;28;20076;-80
2023/03/18 20:39:02;;;;;;;27.02;24.33;;;8.90;99.90;;;;;;5026069;28;20078;-80
2023/03/18 20:41:34;;;;;;;28.05;25.05;;;8.90;99.90;;;;;;5035114;28;20090;-80
2023/03/18 20:44:00;;;;;;;26.57;24.10;;;8.90;99.90;;;;;;5036107;28;20436;-79
2023/03/18 20:46:26;;;;;;;26.63;23.85;;;8.90;99.90;;;;;;5035936;28;20032;-80
2023/03/18 20:48:52;;;;;;;27.77;25.05;;;8.90;99.90;;;;;;5030614;28;20074;-80
2023/03/18 20:51:20;;;;;;;27.33;24.50;;;8.90;99.90;;;;;;5037324;28;20044;-80
2023/03/18 20:53:47;;;;;;;28.88;25.98;;;9.00;99.90;;;;;;5027869;28;20406;-80
2023/03/18 20:56:13;;;;;;;29.13;26.33;;;9.00;99.90;;;;;;5036187;28;20044;-80
2023/03/18 20:58:39;;;;;;;27.95;25.08;;;9.00;99.90;;;;;;5037439;28;20047;-78
2023/03/18 21:01:05;;;;;;;27.88;25.08;;;9.10;99.90;;;;;;5038369;28;20032;-79
2023/03/18 21:03:33;;;;;;;27.25;24.35;;;9.20;99.90;;;;;;5034520;28;20044;-80
2023/03/18 21:06:02;;;;;;;24.95;22.45;;;9.20;99.90;;;;;;5039917;28;20044;-80
2023/03/18 21:08:28;;;;;;;25.77;23.25;;;9.30;99.90;;;;;;5038328;28;20486;-80
2023/03/18 21:10:55;;;;;;;25.85;23.08;;;9.30;99.90;;;;;;5038446;28;20040;-80
2023/03/18 21:13:31;;;;;;;25.95;23.25;;;9.40;99.90;;;;;;5050428;28;20051;-80
2023/03/18 21:15:58;;;;;;;26.00;23.33;;;9.40;99.90;;;;;;5039482;28;20036;-80
2023/03/18 21:18:25;;;;;;;25.48;22.77;;;9.40;99.90;;;;;;5030448;28;20045;-80
2023/03/18 21:20:50;;;;;;;26.17;23.45;;;9.50;99.90;;;;;;5030277;28;20033;-80
2023/03/18 21:23:28;;;;;;;24.98;22.40;;;9.50;99.90;;;;;;5035441;28;20063;-80
2023/03/18 21:25:55;;;;;;;25.15;22.48;;;9.60;99.90;;;;;;5031154;28;20106;-80
2023/03/18 21:28:22;;;;;;;26.77;24.10;;;9.70;99.90;;;;;;5031409;28;20116;-80
2023/03/18 21:30:51;;;;;;;27.98;25.08;;;9.70;99.90;;;;;;5049312;28;20037;-80
2023/03/18 21:33:20;;;;;;;29.45;26.55;;;9.80;99.90;;;;;;5042245;28;20040;-81
2023/03/18 21:35:46;;;;;;;25.10;22.40;;;9.80;99.90;;;;;;5047556;28;20044;-80
2023/03/18 21:38:12;;;;;;;25.85;23.27;;;9.80;99.90;;;;;;5028078;28;20082;-80
2023/03/18 21:40:38;;;;;;;26.75;24.02;;;9.80;99.90;;;;;;5026944;28;20036;-80
2023/03/18 21:43:31;;;;;;;26.27;23.45;;;9.80;99.90;;;;;;5027928;28;20071;-81
2023/03/18 21:45:57;;;;;;;26.95;24.05;;;9.80;99.90;;;;;;5032091;28;20037;-80
2023/03/18 21:48:23;;;;;;;27.50;24.55;;;9.80;99.90;;;;;;5025872;28;20123;-81
2023/03/18 21:50:49;;;;;;;29.50;26.33;;;9.80;99.90;;;;;;5041849;28;20045;-80
2023/03/18 21:53:17;;;;;;;29.85;25.33;;;9.80;99.90;;;;;;5049549;28;20039;-80
2023/03/18 21:55:43;;;;;;;30.13;26.90;;;9.90;99.90;;;;;;5026966;28;20040;-80
2023/03/18 21:58:20;;;;;;;30.33;27.08;;;9.90;99.90;;;;;;5035453;28;20039;-79
2023/03/18 22:00:52;;;;;;;31.67;26.80;;;10.00;99.90;;;;;;5031808;28;20044;-81
2023/03/18 22:03:20;;;;;;;29.23;26.20;;;10.00;99.90;;;;;;5033346;28;20223;-80
2023/03/18 22:05:48;;;;;;;30.83;26.35;;;10.00;99.90;;;;;;5027732;28;20036;-80
2023/03/18 22:08:15;;;;;;;32.92;27.75;;;10.10;99.90;;;;;;5031986;28;20028;-80
2023/03/18 22:10:42;;;;;;;29.17;26.15;;;10.10;99.90;;;;;;5039533;28;20051;-80
2023/03/18 22:13:22;;;;;;;30.77;27.20;;;10.10;99.90;;;;;;5055662;28;20059;-80
2023/03/18 22:15:53;;;;;;;29.38;26.17;;;10.10;99.90;;;;;;5043408;28;20037;-80
2023/03/18 22:18:20;;;;;;;28.98;25.98;;;10.10;99.90;;;;;;5027207;28;20048;-80
2023/03/18 22:20:47;;;;;;;29.75;26.65;;;10.20;99.90;;;;;;5064894;28;20177;-80
2023/03/18 22:23:13;;;;;;;29.45;26.25;;;10.10;99.90;;;;;;5041409;28;20042;-80
2023/03/18 22:25:40;;;;;;;30.75;27.52;;;10.10;99.90;;;;;;5034914;28;20043;-80
2023/03/18 22:28:06;;;;;;;29.52;26.33;;;10.10;99.90;;;;;;5035322;28;20179;-80
2023/03/18 22:30:33;;;;;;;30.63;25.98;;;10.10;99.90;;;;;;5038619;28;20513;-80
2023/03/18 22:33:00;;;;;;;31.23;26.60;;;10.10;99.90;;;;;;5039306;28;20037;-81
2023/03/18 22:35:28;;;;;;;29.92;26.83;;;10.10;99.90;;;;;;5038616;28;20051;-80
2023/03/18 22:37:54;;;;;;;30.40;27.00;;;10.10;99.90;;;;;;5039365;28;20036;-79
2023/03/18 22:40:28;;;;;;;29.75;26.60;;;10.10;99.90;;;;;;5039493;28;20535;-79
2023/03/18 22:42:57;;;;;;;29.02;26.05;;;10.00;99.90;;;;;;5036099;28;20045;-81
2023/03/18 22:45:25;;;;;;;32.10;28.45;;;10.10;99.90;;;;;;5049196;28;20051;-80
2023/03/18 22:47:52;;;;;;;30.38;27.08;;;10.10;99.90;;;;;;5021276;28;20033;-80
2023/03/18 22:50:19;;;;;;;31.38;27.88;;;10.00;99.90;;;;;;5018955;28;20124;-79
2023/03/18 22:52:47;;;;;;;30.42;26.63;;;10.00;99.90;;;;;;5018957;28;20060;-80
2023/03/18 22:55:24;;;;;;;28.98;25.88;;;10.00;99.90;;;;;;5025541;28;20054;-80
2023/03/18 22:57:49;;;;;;;28.67;25.65;;;10.00;99.90;;;;;;5038298;28;20067;-80
2023/03/18 23:00:24;;;;;;;28.45;24.88;;;9.90;99.90;;;;;;5038774;28;20442;-80
2023/03/18 23:02:52;;;;;;;28.98;25.05;;;9.90;99.90;;;;;;5038358;28;20044;-80
2023/03/18 23:05:20;;;;;;;29.33;24.95;;;9.80;99.90;;;;;;5037182;28;20082;-80
2023/03/18 23:07:47;;;;;;;28.85;25.90;;;9.80;99.90;;;;;;5037361;28;20044;-80
2023/03/18 23:10:13;;;;;;;30.35;27.05;;;9.80;99.90;;;;;;5037090;28;20098;-80
2023/03/18 23:12:38;;;;;;;30.02;26.95;;;9.80;99.90;;;;;;5038165;28;20119;-79
2023/03/18 23:15:06;;;;;;;30.65;26.15;;;9.80;99.90;;;;;;5037193;28;20068;-80
2023/03/18 23:17:31;;;;;;;28.73;25.38;;;9.80;99.90;;;;;;5054539;28;20129;-80
2023/03/18 23:19:58;;;;;;;29.23;25.90;;;9.80;99.90;;;;;;5034320;28;20032;-80
2023/03/18 23:22:30;;;;;;;29.63;26.52;;;9.80;99.90;;;;;;5038009;28;20033;-80
2023/03/18 23:24:56;;;;;;;30.02;26.88;;;9.70;99.90;;;;;;5030522;28;20521;-80
2023/03/18 23:27:23;;;;;;;29.02;25.92;;;9.70;99.90;;;;;;5036700;28;20032;-80
2023/03/18 23:29:49;;;;;;;31.50;26.42;;;9.70;99.90;;;;;;5038125;28;20115;-79
2023/03/18 23:32:16;;;;;;;28.92;25.75;;;9.70;99.90;;;;;;5038027;28;20152;-80
2023/03/18 23:34:42;;;;;;;29.38;25.92;;;9.70;99.90;;;;;;5037700;28;20040;-79
2023/03/18 23:37:10;;;;;;;29.63;25.73;;;9.70;99.90;;;;;;5032878;28;20123;-80
2023/03/18 23:39:41;;;;;;;29.65;24.17;;;9.80;99.90;;;;;;5038239;28;20040;-80
2023/03/18 23:42:12;;;;;;;26.42;23.58;;;9.80;99.90;;;;;;5034008;28;20037;-80
2023/03/18 23:44:38;;;;;;;26.30;23.10;;;9.80;99.90;;;;;;5025857;28;20044;-80
2023/03/18 23:47:05;;;;;;;26.17;22.50;;;9.70;99.90;;;;;;5026971;28;20133;-80
2023/03/18 23:49:33;;;;;;;23.80;21.30;;;9.70;99.90;;;;;;5018052;28;20091;-80
2023/03/18 23:52:05;;;;;;;22.52;20.23;;;9.70;99.90;;;;;;5017814;28;20098;-80
2023/03/18 23:54:32;;;;;;;21.93;19.67;;;9.60;99.90;;;;;;5025244;28;20043;-79
2023/03/18 23:57:02;;;;;;;22.35;19.90;;;9.60;99.90;;;;;;5048454;28;20694;-80
2023/03/18 23:59:29;;;;;;;21.45;19.10;;;9.60;99.90;;;;;;5032423;28;20124;-80
